sensor_id;sensor_type;location;lat;lon;timestamp;pressure;altitude;pressure_sealevel;temperature;humidity
70445;BME280;57902;49.638;11.070;2023-05-09T00:14:53;98643.34;;;13.59;58.49
70445;BME280;57902;49.638;11.070;2023-05-09T00:17:22;98641.50;;;13.63;58.02
70445;BME280;57902;49.638;11.070;2023-05-09T00:19:49;98644.22;;;13.60;57.69
70445;BME280;57902;49.638;11.070;2023-05-09T00:22:17;98645.09;;;13.59;58.69
70445;BME280;57902;49.638;11.070;2023-05-09T00:24:44;98640.03;;;13.56;57.91
70445;BME280;57902;49.638;11.070;2023-05-09T00:27:10;98642.63;;;13.56;58.06
70445;BME280;57902;49.638;11.070;2023-05-09T00:29:37;98637.22;;;13.62;57.98
70445;BME280;57902;49.638;11.070;2023-05-09T00:32:04;98632.72;;;13.67;57.05
70445;BME280;57902;49.638;11.070;2023-05-09T00:34:31;98633.78;;;13.61;57.66
70445;BME280;57902;49.638;11.070;2023-05-09T00:36:57;98624.38;;;13.59;57.59
70445;BME280;57902;49.638;11.070;2023-05-09T00:39:24;98626.06;;;13.60;57.78
70445;BME280;57902;49.638;11.070;2023-05-09T00:41:51;98619.97;;;13.61;57.38
70445;BME280;57902;49.638;11.070;2023-05-09T00:44:17;98609.66;;;13.59;57.70
70445;BME280;57902;49.638;11.070;2023-05-09T00:46:44;98619.47;;;13.51;58.01
70445;BME280;57902;49.638;11.070;2023-05-09T00:49:10;98614.25;;;13.53;57.46
70445;BME280;57902;49.638;11.070;2023-05-09T00:51:39;98614.25;;;13.53;57.62
70445;BME280;57902;49.638;11.070;2023-05-09T00:54:09;98609.94;;;13.52;58.12
70445;BME280;57902;49.638;11.070;2023-05-09T00:56:37;98598.13;;;13.44;58.23
70445;BME280;57902;49.638;11.070;2023-05-09T00:59:04;98603.41;;;13.41;58.18
70445;BME280;57902;49.638;11.070;2023-05-09T01:01:31;98596.22;;;13.50;58.09
70445;BME280;57902;49.638;11.070;2023-05-09T01:03:58;98595.31;;;13.51;58.27
70445;BME280;57902;49.638;11.070;2023-05-09T01:06:34;98593.56;;;13.51;58.48
70445;BME280;57902;49.638;11.070;2023-05-09T01:12:42;98590.03;;;13.54;58.30
70445;BME280;57902;49.638;11.070;2023-05-09T01:23:14;98581.81;;;13.42;59.53
70445;BME280;57902;49.638;11.070;2023-05-09T01:26:04;98585.19;;;13.44;59.99
70445;BME280;57902;49.638;11.070;2023-05-09T01:28:59;98575.25;;;13.32;60.57
70445;BME280;57902;49.638;11.070;2023-05-09T01:31:33;98576.69;;;13.41;60.41
70445;BME280;57902;49.638;11.070;2023-05-09T01:34:04;98570.56;;;13.43;60.15
70445;BME280;57902;49.638;11.070;2023-05-09T01:36:33;98576.13;;;13.31;61.06
70445;BME280;57902;49.638;11.070;2023-05-09T01:39:02;98581.31;;;13.31;61.65
70445;BME280;57902;49.638;11.070;2023-05-09T01:41:30;98577.75;;;13.35;61.20
70445;BME280;57902;49.638;11.070;2023-05-09T01:43:59;98577.03;;;13.30;61.58
70445;BME280;57902;49.638;11.070;2023-05-09T01:46:28;98573.53;;;13.31;61.80
70445;BME280;57902;49.638;11.070;2023-05-09T01:48:58;98568.38;;;13.31;61.87
70445;BME280;57902;49.638;11.070;2023-05-09T01:51:26;98565.47;;;13.40;61.67
70445;BME280;57902;49.638;11.070;2023-05-09T01:53:55;98573.34;;;13.37;61.83
70445;BME280;57902;49.638;11.070;2023-05-09T01:56:23;98568.41;;;13.29;62.68
70445;BME280;57902;49.638;11.070;2023-05-09T01:58:51;98570.13;;;13.30;62.52
70445;BME280;57902;49.638;11.070;2023-05-09T02:01:19;98573.78;;;13.25;63.12
70445;BME280;57902;49.638;11.070;2023-05-09T02:03:50;98565.13;;;13.26;63.62
70445;BME280;57902;49.638;11.070;2023-05-09T02:06:19;98565.00;;;13.29;63.25
70445;BME280;57902;49.638;11.070;2023-05-09T02:08:47;98560.94;;;13.22;64.05
70445;BME280;57902;49.638;11.070;2023-05-09T02:11:14;98559.19;;;13.22;63.89
70445;BME280;57902;49.638;11.070;2023-05-09T02:13:41;98557.53;;;13.20;64.15
70445;BME280;57902;49.638;11.070;2023-05-09T02:16:08;98555.72;;;13.23;64.53
70445;BME280;57902;49.638;11.070;2023-05-09T02:18:35;98557.47;;;13.23;64.53
70445;BME280;57902;49.638;11.070;2023-05-09T02:21:02;98567.97;;;13.18;65.09
70445;BME280;57902;49.638;11.070;2023-05-09T02:23:29;98563.94;;;13.09;65.80
70445;BME280;57902;49.638;11.070;2023-05-09T02:25:56;98569.13;;;13.09;65.79
70445;BME280;57902;49.638;11.070;2023-05-09T02:28:24;98564.59;;;13.16;65.56
70445;BME280;57902;49.638;11.070;2023-05-09T02:30:54;98572.41;;;13.15;65.58
70445;BME280;57902;49.638;11.070;2023-05-09T02:33:22;98569.88;;;13.13;65.85
70445;BME280;57902;49.638;11.070;2023-05-09T02:35:49;98577.31;;;13.22;65.69
70445;BME280;57902;49.638;11.070;2023-05-09T02:38:16;98568.81;;;13.19;65.57
70445;BME280;57902;49.638;11.070;2023-05-09T02:40:46;98569.00;;;13.12;65.97
70445;BME280;57902;49.638;11.070;2023-05-09T02:43:12;98566.47;;;13.11;66.03
70445;BME280;57902;49.638;11.070;2023-05-09T02:45:40;98570.72;;;13.13;65.54
70445;BME280;57902;49.638;11.070;2023-05-09T02:48:07;98565.66;;;13.10;65.61
70445;BME280;57902;49.638;11.070;2023-05-09T02:50:34;98574.41;;;13.06;65.93
70445;BME280;57902;49.638;11.070;2023-05-09T02:53:04;98561.69;;;13.00;66.37
70445;BME280;57902;49.638;11.070;2023-05-09T02:55:30;98562.53;;;13.01;65.96
70445;BME280;57902;49.638;11.070;2023-05-09T02:57:57;98555.63;;;13.01;65.90
70445;BME280;57902;49.638;11.070;2023-05-09T03:00:38;98550.69;;;12.95;66.20
70445;BME280;57902;49.638;11.070;2023-05-09T03:03:04;98550.72;;;12.93;66.38
70445;BME280;57902;49.638;11.070;2023-05-09T03:05:31;98546.50;;;12.91;66.16
70445;BME280;57902;49.638;11.070;2023-05-09T03:07:58;98546.78;;;12.82;66.66
70445;BME280;57902;49.638;11.070;2023-05-09T03:10:24;98547.50;;;12.87;66.65
70445;BME280;57902;49.638;11.070;2023-05-09T03:12:51;98548.44;;;12.84;66.73
70445;BME280;57902;49.638;11.070;2023-05-09T03:15:18;98545.97;;;12.81;67.21
70445;BME280;57902;49.638;11.070;2023-05-09T03:17:45;98556.16;;;12.86;66.74
70445;BME280;57902;49.638;11.070;2023-05-09T03:20:12;98546.00;;;12.80;67.18
70445;BME280;57902;49.638;11.070;2023-05-09T03:22:39;98550.41;;;12.77;67.00
70445;BME280;57902;49.638;11.070;2023-05-09T03:25:06;98554.59;;;12.80;66.56
70445;BME280;57902;49.638;11.070;2023-05-09T03:27:32;98547.13;;;12.72;67.46
70445;BME280;57902;49.638;11.070;2023-05-09T03:29:59;98545.34;;;12.74;67.59
70445;BME280;57902;49.638;11.070;2023-05-09T03:32:28;98547.22;;;12.69;67.85
70445;BME280;57902;49.638;11.070;2023-05-09T03:34:56;98551.75;;;12.63;68.13
70445;BME280;57902;49.638;11.070;2023-05-09T03:37:25;98549.44;;;12.55;68.68
70445;BME280;57902;49.638;11.070;2023-05-09T03:39:53;98555.41;;;12.57;68.83
70445;BME280;57902;49.638;11.070;2023-05-09T03:42:20;98553.59;;;12.59;69.16
70445;BME280;57902;49.638;11.070;2023-05-09T03:44:47;98551.06;;;12.57;69.44
70445;BME280;57902;49.638;11.070;2023-05-09T03:47:14;98552.13;;;12.52;69.28
70445;BME280;57902;49.638;11.070;2023-05-09T03:49:40;98552.94;;;12.52;69.93
70445;BME280;57902;49.638;11.070;2023-05-09T03:52:07;98551.28;;;12.51;69.86
70445;BME280;57902;49.638;11.070;2023-05-09T03:54:33;98545.25;;;12.51;70.57
70445;BME280;57902;49.638;11.070;2023-05-09T03:57:06;98540.84;;;12.54;69.90
70445;BME280;57902;49.638;11.070;2023-05-09T03:59:35;98546.94;;;12.52;70.64
70445;BME280;57902;49.638;11.070;2023-05-09T04:02:02;98546.78;;;12.56;70.23
70445;BME280;57902;49.638;11.070;2023-05-09T04:04:28;98555.59;;;12.51;70.28
70445;BME280;57902;49.638;11.070;2023-05-09T04:06:55;98552.66;;;12.62;69.72
70445;BME280;57902;49.638;11.070;2023-05-09T04:09:21;98560.25;;;12.66;69.77
70445;BME280;57902;49.638;11.070;2023-05-09T04:11:48;98548.00;;;12.71;69.90
70445;BME280;57902;49.638;11.070;2023-05-09T04:14:14;98548.63;;;13.03;68.02
70445;BME280;57902;49.638;11.070;2023-05-09T04:16:41;98549.22;;;13.37;67.21
70445;BME280;57902;49.638;11.070;2023-05-09T04:19:07;98551.19;;;13.54;66.63
70445;BME280;57902;49.638;11.070;2023-05-09T04:21:34;98558.47;;;13.66;65.23
70445;BME280;57902;49.638;11.070;2023-05-09T04:24:00;98559.06;;;14.18;64.02
70445;BME280;57902;49.638;11.070;2023-05-09T04:26:26;98558.59;;;14.51;63.41
70445;BME280;57902;49.638;11.070;2023-05-09T04:28:53;98551.81;;;14.69;61.68
70445;BME280;57902;49.638;11.070;2023-05-09T04:31:24;98553.69;;;14.66;61.89
70445;BME280;57902;49.638;11.070;2023-05-09T04:33:51;98547.09;;;14.79;61.25
70445;BME280;57902;49.638;11.070;2023-05-09T04:36:18;98552.72;;;15.10;60.16
70445;BME280;57902;49.638;11.070;2023-05-09T04:38:44;98546.91;;;15.43;58.54
70445;BME280;57902;49.638;11.070;2023-05-09T04:41:11;98544.47;;;15.97;56.84
70445;BME280;57902;49.638;11.070;2023-05-09T04:43:38;98553.38;;;15.72;57.40
70445;BME280;57902;49.638;11.070;2023-05-09T04:46:04;98543.81;;;15.15;59.19
70445;BME280;57902;49.638;11.070;2023-05-09T04:48:31;98550.31;;;15.05;60.16
70445;BME280;57902;49.638;11.070;2023-05-09T04:50:57;98555.47;;;14.65;61.19
70445;BME280;57902;49.638;11.070;2023-05-09T04:53:24;98554.31;;;14.73;61.35
70445;BME280;57902;49.638;11.070;2023-05-09T04:55:51;98551.28;;;14.18;63.13
70445;BME280;57902;49.638;11.070;2023-05-09T04:58:18;98548.44;;;14.25;63.68
70445;BME280;57902;49.638;11.070;2023-05-09T05:00:45;98543.78;;;14.11;63.38
70445;BME280;57902;49.638;11.070;2023-05-09T05:03:11;98551.88;;;14.03;64.83
70445;BME280;57902;49.638;11.070;2023-05-09T05:05:38;98549.84;;;13.89;64.44
70445;BME280;57902;49.638;11.070;2023-05-09T05:08:06;98551.56;;;13.89;64.79
70445;BME280;57902;49.638;11.070;2023-05-09T05:10:33;98555.84;;;14.12;63.87
70445;BME280;57902;49.638;11.070;2023-05-09T05:12:59;98550.06;;;14.91;61.20
70445;BME280;57902;49.638;11.070;2023-05-09T05:15:26;98546.66;;;15.87;58.75
70445;BME280;57902;49.638;11.070;2023-05-09T05:17:52;98550.13;;;16.59;56.14
70445;BME280;57902;49.638;11.070;2023-05-09T05:20:19;98550.66;;;17.50;53.17
70445;BME280;57902;49.638;11.070;2023-05-09T05:22:46;98551.16;;;17.41;52.76
70445;BME280;57902;49.638;11.070;2023-05-09T05:25:12;98553.28;;;17.50;52.60
70445;BME280;57902;49.638;11.070;2023-05-09T05:27:39;98543.97;;;17.12;53.21
70445;BME280;57902;49.638;11.070;2023-05-09T05:30:06;98544.53;;;16.84;54.00
70445;BME280;57902;49.638;11.070;2023-05-09T05:32:33;98552.50;;;16.64;55.21
70445;BME280;57902;49.638;11.070;2023-05-09T05:35:00;98553.09;;;15.97;57.94
70445;BME280;57902;49.638;11.070;2023-05-09T05:37:27;98549.53;;;16.00;56.52
70445;BME280;57902;49.638;11.070;2023-05-09T05:39:54;98552.31;;;15.76;58.15
70445;BME280;57902;49.638;11.070;2023-05-09T05:42:20;98551.66;;;15.53;59.95
70445;BME280;57902;49.638;11.070;2023-05-09T05:44:47;98549.34;;;15.27;60.55
70445;BME280;57902;49.638;11.070;2023-05-09T05:47:13;98539.09;;;15.23;62.29
70445;BME280;57902;49.638;11.070;2023-05-09T05:49:40;98537.06;;;15.11;61.44
70445;BME280;57902;49.638;11.070;2023-05-09T05:52:07;98530.72;;;14.98;62.12
70445;BME280;57902;49.638;11.070;2023-05-09T05:54:33;98529.34;;;15.10;61.77
70445;BME280;57902;49.638;11.070;2023-05-09T05:56:59;98528.97;;;14.98;61.95
70445;BME280;57902;49.638;11.070;2023-05-09T05:59:26;98525.94;;;14.68;63.08
70445;BME280;57902;49.638;11.070;2023-05-09T06:01:52;98527.81;;;14.85;61.95
70445;BME280;57902;49.638;11.070;2023-05-09T06:04:19;98522.03;;;15.94;58.74
70445;BME280;57902;49.638;11.070;2023-05-09T06:06:46;98519.91;;;17.41;56.09
70445;BME280;57902;49.638;11.070;2023-05-09T06:09:13;98525.94;;;18.21;50.85
70445;BME280;57902;49.638;11.070;2023-05-09T06:11:40;98515.16;;;18.58;49.18
70445;BME280;57902;49.638;11.070;2023-05-09T06:14:09;98515.41;;;19.12;47.94
70445;BME280;57902;49.638;11.070;2023-05-09T06:16:36;98515.44;;;19.68;47.74
70445;BME280;57902;49.638;11.070;2023-05-09T06:19:02;98511.81;;;19.56;46.81
70445;BME280;57902;49.638;11.070;2023-05-09T06:21:29;98518.31;;;19.92;43.86
70445;BME280;57902;49.638;11.070;2023-05-09T06:23:56;98504.56;;;19.18;45.46
70445;BME280;57902;49.638;11.070;2023-05-09T06:26:42;98515.09;;;19.60;45.75
70445;BME280;57902;49.638;11.070;2023-05-09T06:29:08;98509.25;;;18.54;46.26
70445;BME280;57902;49.638;11.070;2023-05-09T06:31:36;98519.13;;;19.93;43.74
70445;BME280;57902;49.638;11.070;2023-05-09T06:34:04;98512.13;;;19.23;44.03
70445;BME280;57902;49.638;11.070;2023-05-09T06:36:31;98508.00;;;19.48;44.46
70445;BME280;57902;49.638;11.070;2023-05-09T06:38:58;98501.47;;;19.40;45.01
70445;BME280;57902;49.638;11.070;2023-05-09T06:41:25;98504.75;;;19.30;46.11
70445;BME280;57902;49.638;11.070;2023-05-09T06:43:52;98517.19;;;20.09;43.60
70445;BME280;57902;49.638;11.070;2023-05-09T06:46:18;98505.31;;;20.97;41.16
70445;BME280;57902;49.638;11.070;2023-05-09T06:48:45;98498.50;;;20.94;40.96
70445;BME280;57902;49.638;11.070;2023-05-09T06:51:12;98504.59;;;20.42;42.30
70445;BME280;57902;49.638;11.070;2023-05-09T06:53:38;98502.03;;;20.93;41.41
70445;BME280;57902;49.638;11.070;2023-05-09T06:56:05;98490.63;;;20.94;40.16
70445;BME280;57902;49.638;11.070;2023-05-09T06:58:31;98483.50;;;20.71;41.30
70445;BME280;57902;49.638;11.070;2023-05-09T07:00:58;98483.91;;;21.03;39.80
70445;BME280;57902;49.638;11.070;2023-05-09T07:03:25;98474.56;;;20.99;40.53
70445;BME280;57902;49.638;11.070;2023-05-09T07:05:52;98469.69;;;21.31;41.06
70445;BME280;57902;49.638;11.070;2023-05-09T07:08:18;98473.13;;;22.42;37.02
70445;BME280;57902;49.638;11.070;2023-05-09T07:10:45;98462.34;;;22.80;37.13
70445;BME280;57902;49.638;11.070;2023-05-09T07:13:11;98460.97;;;22.16;38.96
70445;BME280;57902;49.638;11.070;2023-05-09T07:15:38;98462.91;;;21.66;38.76
70445;BME280;57902;49.638;11.070;2023-05-09T07:18:08;98461.38;;;22.70;37.63
70445;BME280;57902;49.638;11.070;2023-05-09T07:20:35;98459.72;;;22.80;37.88
70445;BME280;57902;49.638;11.070;2023-05-09T07:23:04;98454.97;;;22.03;38.38
70445;BME280;57902;49.638;11.070;2023-05-09T07:25:31;98442.34;;;22.19;38.35
70445;BME280;57902;49.638;11.070;2023-05-09T07:27:58;98453.25;;;23.73;34.76
70445;BME280;57902;49.638;11.070;2023-05-09T07:30:24;98454.41;;;23.48;34.83
70445;BME280;57902;49.638;11.070;2023-05-09T07:32:51;98450.25;;;22.78;37.44
70445;BME280;57902;49.638;11.070;2023-05-09T07:35:18;98450.22;;;21.84;38.75
70445;BME280;57902;49.638;11.070;2023-05-09T07:37:45;98454.19;;;22.25;38.78
70445;BME280;57902;49.638;11.070;2023-05-09T07:40:12;98453.94;;;22.64;37.71
70445;BME280;57902;49.638;11.070;2023-05-09T07:42:39;98446.44;;;22.24;38.41
70445;BME280;57902;49.638;11.070;2023-05-09T07:45:06;98443.66;;;22.61;37.57
70445;BME280;57902;49.638;11.070;2023-05-09T07:47:32;98440.63;;;21.96;38.72
70445;BME280;57902;49.638;11.070;2023-05-09T07:49:59;98424.06;;;20.84;40.23
70445;BME280;57902;49.638;11.070;2023-05-09T07:52:25;98428.59;;;21.32;39.39
70445;BME280;57902;49.638;11.070;2023-05-09T07:54:52;98427.03;;;22.02;37.37
70445;BME280;57902;49.638;11.070;2023-05-09T07:57:19;98426.13;;;22.26;36.41
70445;BME280;57902;49.638;11.070;2023-05-09T07:59:47;98428.41;;;23.00;34.93
70445;BME280;57902;49.638;11.070;2023-05-09T08:02:13;98433.88;;;22.51;35.74
70445;BME280;57902;49.638;11.070;2023-05-09T08:04:40;98434.00;;;22.14;36.69
70445;BME280;57902;49.638;11.070;2023-05-09T08:07:07;98422.94;;;21.25;37.56
70445;BME280;57902;49.638;11.070;2023-05-09T08:09:34;98420.25;;;21.75;36.15
70445;BME280;57902;49.638;11.070;2023-05-09T08:12:00;98416.25;;;21.58;37.09
70445;BME280;57902;49.638;11.070;2023-05-09T08:14:27;98412.03;;;21.80;36.68
70445;BME280;57902;49.638;11.070;2023-05-09T08:16:53;98405.50;;;21.37;37.43
70445;BME280;57902;49.638;11.070;2023-05-09T08:19:23;98404.38;;;22.01;36.83
70445;BME280;57902;49.638;11.070;2023-05-09T08:21:52;98396.88;;;22.08;37.73
70445;BME280;57902;49.638;11.070;2023-05-09T08:24:18;98402.19;;;22.42;37.14
70445;BME280;57902;49.638;11.070;2023-05-09T08:26:45;98387.47;;;22.16;36.64
70445;BME280;57902;49.638;11.070;2023-05-09T08:29:12;98379.09;;;22.11;36.58
70445;BME280;57902;49.638;11.070;2023-05-09T08:31:38;98387.66;;;21.91;35.86
70445;BME280;57902;49.638;11.070;2023-05-09T08:34:05;98384.34;;;21.76;36.64
70445;BME280;57902;49.638;11.070;2023-05-09T08:36:31;98380.72;;;21.90;37.58
70445;BME280;57902;49.638;11.070;2023-05-09T08:38:59;98375.28;;;21.69;36.63
70445;BME280;57902;49.638;11.070;2023-05-09T08:41:25;98371.81;;;21.68;36.20
70445;BME280;57902;49.638;11.070;2023-05-09T08:43:55;98358.88;;;21.54;36.29
70445;BME280;57902;49.638;11.070;2023-05-09T08:46:38;98362.72;;;21.37;36.37
70445;BME280;57902;49.638;11.070;2023-05-09T08:49:08;98360.28;;;21.09;36.87
70445;BME280;57902;49.638;11.070;2023-05-09T08:51:39;98351.88;;;20.80;38.07
70445;BME280;57902;49.638;11.070;2023-05-09T08:54:06;98341.13;;;20.72;37.92
70445;BME280;57902;49.638;11.070;2023-05-09T08:56:33;98344.88;;;20.42;37.90
70445;BME280;57902;49.638;11.070;2023-05-09T08:59:00;98340.41;;;20.31;38.27
70445;BME280;57902;49.638;11.070;2023-05-09T09:01:27;98332.75;;;20.28;37.66
70445;BME280;57902;49.638;11.070;2023-05-09T09:03:55;98332.66;;;20.30;38.91
70445;BME280;57902;49.638;11.070;2023-05-09T09:06:22;98323.09;;;20.28;39.09
70445;BME280;57902;49.638;11.070;2023-05-09T09:08:53;98337.16;;;20.15;38.55
70445;BME280;57902;49.638;11.070;2023-05-09T09:11:20;98326.56;;;20.03;39.68
70445;BME280;57902;49.638;11.070;2023-05-09T09:13:50;98326.97;;;20.23;38.44
70445;BME280;57902;49.638;11.070;2023-05-09T09:16:19;98330.75;;;20.32;39.93
70445;BME280;57902;49.638;11.070;2023-05-09T09:18:47;98324.56;;;20.07;39.16
70445;BME280;57902;49.638;11.070;2023-05-09T09:21:17;98323.75;;;20.32;38.93
70445;BME280;57902;49.638;11.070;2023-05-09T09:23:46;98319.13;;;20.49;37.11
70445;BME280;57902;49.638;11.070;2023-05-09T09:26:12;98313.66;;;20.52;37.40
70445;BME280;57902;49.638;11.070;2023-05-09T09:28:40;98310.88;;;20.29;38.69
70445;BME280;57902;49.638;11.070;2023-05-09T09:31:24;98314.94;;;20.33;38.82
70445;BME280;57902;49.638;11.070;2023-05-09T09:33:51;98310.44;;;20.09;38.19
70445;BME280;57902;49.638;11.070;2023-05-09T09:36:28;98294.03;;;20.07;37.77
70445;BME280;57902;49.638;11.070;2023-05-09T09:38:57;98293.28;;;20.05;37.75
70445;BME280;57902;49.638;11.070;2023-05-09T09:41:35;98295.50;;;19.99;36.91
70445;BME280;57902;49.638;11.070;2023-05-09T09:44:15;98285.84;;;19.99;36.74
70445;BME280;57902;49.638;11.070;2023-05-09T09:46:53;98291.09;;;20.12;35.97
70445;BME280;57902;49.638;11.070;2023-05-09T09:49:22;98281.31;;;20.40;36.64
70445;BME280;57902;49.638;11.070;2023-05-09T09:51:54;98280.84;;;20.22;36.02
70445;BME280;57902;49.638;11.070;2023-05-09T09:54:21;98266.66;;;20.37;35.13
70445;BME280;57902;49.638;11.070;2023-05-09T09:56:55;98257.34;;;20.33;34.97
70445;BME280;57902;49.638;11.070;2023-05-09T09:59:24;98255.06;;;20.28;36.22
70445;BME280;57902;49.638;11.070;2023-05-09T10:04:23;98249.22;;;19.99;34.62
70445;BME280;57902;49.638;11.070;2023-05-09T10:06:54;98246.28;;;20.04;34.57
70445;BME280;57902;49.638;11.070;2023-05-09T10:09:25;98252.53;;;20.27;35.51
70445;BME280;57902;49.638;11.070;2023-05-09T10:11:55;98238.59;;;20.39;32.67
70445;BME280;57902;49.638;11.070;2023-05-09T10:14:23;98253.34;;;20.40;33.54
70445;BME280;57902;49.638;11.070;2023-05-09T10:16:54;98238.19;;;20.33;33.48
70445;BME280;57902;49.638;11.070;2023-05-09T10:19:24;98232.47;;;20.15;33.94
70445;BME280;57902;49.638;11.070;2023-05-09T10:25:25;98223.03;;;20.12;34.24
70445;BME280;57902;49.638;11.070;2023-05-09T10:28:17;98225.97;;;20.20;35.32
70445;BME280;57902;49.638;11.070;2023-05-09T10:31:04;98212.34;;;20.15;35.09
70445;BME280;57902;49.638;11.070;2023-05-09T10:33:46;98206.47;;;20.24;34.58
70445;BME280;57902;49.638;11.070;2023-05-09T10:36:36;98209.28;;;20.34;32.20
70445;BME280;57902;49.638;11.070;2023-05-09T10:39:23;98187.22;;;20.25;33.17
70445;BME280;57902;49.638;11.070;2023-05-09T10:41:59;98176.97;;;20.22;32.29
70445;BME280;57902;49.638;11.070;2023-05-09T10:44:26;98174.19;;;20.61;32.15
70445;BME280;57902;49.638;11.070;2023-05-09T10:47:27;98165.13;;;20.54;33.70
70445;BME280;57902;49.638;11.070;2023-05-09T10:50:01;98181.22;;;20.73;34.20
70445;BME280;57902;49.638;11.070;2023-05-09T10:52:31;98174.16;;;20.50;32.85
70445;BME280;57902;49.638;11.070;2023-05-09T10:55:02;98158.00;;;20.56;32.29
70445;BME280;57902;49.638;11.070;2023-05-09T10:57:38;98165.72;;;20.70;32.62
70445;BME280;57902;49.638;11.070;2023-05-09T11:00:05;98160.41;;;20.83;31.01
70445;BME280;57902;49.638;11.070;2023-05-09T11:02:35;98154.44;;;20.81;30.97
70445;BME280;57902;49.638;11.070;2023-05-09T11:05:15;98129.25;;;20.67;29.90
70445;BME280;57902;49.638;11.070;2023-05-09T11:08:27;98127.59;;;20.66;30.83
70445;BME280;57902;49.638;11.070;2023-05-09T11:11:05;98123.00;;;20.81;31.40
70445;BME280;57902;49.638;11.070;2023-05-09T11:13:44;98118.88;;;20.90;30.63
70445;BME280;57902;49.638;11.070;2023-05-09T11:16:18;98113.78;;;21.00;30.50
70445;BME280;57902;49.638;11.070;2023-05-09T11:18:50;98118.78;;;21.03;30.36
70445;BME280;57902;49.638;11.070;2023-05-09T11:21:18;98115.34;;;21.13;30.99
70445;BME280;57902;49.638;11.070;2023-05-09T11:24:01;98112.13;;;21.21;28.79
70445;BME280;57902;49.638;11.070;2023-05-09T11:26:45;98091.41;;;20.71;29.54
70445;BME280;57902;49.638;11.070;2023-05-09T11:29:41;98089.78;;;20.82;29.79
70445;BME280;57902;49.638;11.070;2023-05-09T11:32:16;98087.66;;;20.87;28.92
70445;BME280;57902;49.638;11.070;2023-05-09T11:35:18;98079.47;;;20.67;29.17
70445;BME280;57902;49.638;11.070;2023-05-09T11:37:58;98080.69;;;20.74;28.93
70445;BME280;57902;49.638;11.070;2023-05-09T11:40:26;98092.03;;;20.86;27.38
70445;BME280;57902;49.638;11.070;2023-05-09T11:42:54;98085.28;;;20.95;27.73
70445;BME280;57902;49.638;11.070;2023-05-09T11:45:31;98069.28;;;20.75;27.96
70445;BME280;57902;49.638;11.070;2023-05-09T11:48:07;98066.31;;;20.80;27.72
70445;BME280;57902;49.638;11.070;2023-05-09T11:50:40;98079.59;;;21.01;29.15
70445;BME280;57902;49.638;11.070;2023-05-09T11:53:16;98064.09;;;20.98;28.27
70445;BME280;57902;49.638;11.070;2023-05-09T11:55:54;98067.19;;;21.03;27.39
70445;BME280;57902;49.638;11.070;2023-05-09T11:58:28;98052.28;;;20.81;27.08
70445;BME280;57902;49.638;11.070;2023-05-09T12:00:54;98048.59;;;20.95;27.15
70445;BME280;57902;49.638;11.070;2023-05-09T12:03:34;98043.03;;;21.11;26.23
70445;BME280;57902;49.638;11.070;2023-05-09T12:06:14;98043.13;;;20.87;27.41
70445;BME280;57902;49.638;11.070;2023-05-09T12:08:59;98030.25;;;20.95;26.93
70445;BME280;57902;49.638;11.070;2023-05-09T12:11:28;98022.91;;;21.11;26.67
70445;BME280;57902;49.638;11.070;2023-05-09T12:13:57;98029.09;;;21.22;26.19
70445;BME280;57902;49.638;11.070;2023-05-09T12:16:23;98024.94;;;21.30;27.24
70445;BME280;57902;49.638;11.070;2023-05-09T12:18:52;98020.03;;;21.26;25.99
70445;BME280;57902;49.638;11.070;2023-05-09T12:21:19;98013.47;;;21.43;26.19
70445;BME280;57902;49.638;11.070;2023-05-09T12:23:47;98016.47;;;21.38;27.28
70445;BME280;57902;49.638;11.070;2023-05-09T12:26:17;98004.28;;;21.37;25.96
70445;BME280;57902;49.638;11.070;2023-05-09T12:28:44;98005.97;;;21.49;26.25
70445;BME280;57902;49.638;11.070;2023-05-09T12:31:10;97998.09;;;21.38;25.87
70445;BME280;57902;49.638;11.070;2023-05-09T12:33:38;97986.31;;;21.44;27.29
70445;BME280;57902;49.638;11.070;2023-05-09T12:36:10;97983.19;;;21.50;26.31
70445;BME280;57902;49.638;11.070;2023-05-09T12:38:37;97976.44;;;21.25;25.97
70445;BME280;57902;49.638;11.070;2023-05-09T12:41:08;97972.72;;;21.39;26.66
70445;BME280;57902;49.638;11.070;2023-05-09T12:43:55;97973.56;;;21.39;25.43
70445;BME280;57902;49.638;11.070;2023-05-09T12:46:21;97970.69;;;21.31;25.56
70445;BME280;57902;49.638;11.070;2023-05-09T12:48:48;97966.03;;;21.35;28.01
70445;BME280;57902;49.638;11.070;2023-05-09T12:51:18;97961.53;;;21.25;25.94
70445;BME280;57902;49.638;11.070;2023-05-09T12:53:46;97956.16;;;21.38;27.12
70445;BME280;57902;49.638;11.070;2023-05-09T12:56:14;97943.75;;;21.40;28.37
70445;BME280;57902;49.638;11.070;2023-05-09T12:58:52;97945.91;;;21.35;27.41
70445;BME280;57902;49.638;11.070;2023-05-09T13:01:20;97941.84;;;21.54;29.44
70445;BME280;57902;49.638;11.070;2023-05-09T13:04:06;97934.34;;;21.81;27.08
70445;BME280;57902;49.638;11.070;2023-05-09T13:06:33;97930.03;;;21.59;26.57
70445;BME280;57902;49.638;11.070;2023-05-09T13:09:02;97928.72;;;21.54;26.74
70445;BME280;57902;49.638;11.070;2023-05-09T13:11:31;97926.91;;;21.65;26.95
70445;BME280;57902;49.638;11.070;2023-05-09T13:13:57;97932.50;;;21.72;25.22
70445;BME280;57902;49.638;11.070;2023-05-09T13:16:24;97916.78;;;21.61;24.82
70445;BME280;57902;49.638;11.070;2023-05-09T13:18:50;97915.13;;;21.60;24.67
70445;BME280;57902;49.638;11.070;2023-05-09T13:21:17;97905.72;;;21.90;24.25
70445;BME280;57902;49.638;11.070;2023-05-09T13:23:45;97905.75;;;21.78;24.85
70445;BME280;57902;49.638;11.070;2023-05-09T13:26:11;97904.00;;;22.00;25.28
70445;BME280;57902;49.638;11.070;2023-05-09T13:28:38;97899.81;;;21.97;24.95
70445;BME280;57902;49.638;11.070;2023-05-09T13:31:04;97894.13;;;21.92;23.84
70445;BME280;57902;49.638;11.070;2023-05-09T13:33:32;97900.72;;;22.08;25.03